Simon Onuachu

Olheiro - Enyimba
3 Dez 2028
Domingo
Processo

Personalidade

Adaptabilidade (5) Ambição (13) Controvérsia (17) Lealdade (6) Pressão (20) Profissionalismo (10) Espírito Esportivo (4) Temperamento (16)

Perfil

Estilo de Treinamento Democrático
Licença Continental A
Determinação 4
Gestão de Pessoas 4
Motivação 6
Disciplina 4
Satisfação no Trabalho
77%
Fadiga
0%
Função Olheiro
Salário 13.9K p/s
Contrato 14.03.2029

Desempenho

Comportamento Bom
Eficácia do Treinamento
26%
Desenvolvimento do Jogador
35%
Prevenção de Lesões
30%
Implementação Tática
25%

Eventos Recentes

Avaliou um jogador agora
Participou de uma reunião de recrutamento agora
Participou de uma reunião de recrutamento 7d atrás
Avaliou um jogador 7d atrás
Avaliou um jogador 7d atrás
Avaliou um jogador 7d atrás
Avaliou um jogador 7d atrás
Avaliou um jogador 7d atrás

Monitorando agora

86
Jogador Clube Status Habilidade Confiança Observado Última observação Último voto
Malik Mothersille Stockport County Ativo 114 / 139 40% 1 29.11.2028 -
Erick Otieno Shabana Ativo 89 / 86 40% 1 29.11.2028 -
Souleymane Faye Sporting CP Ativo 147 / 137 40% 2 28.11.2028 -
Will Swan Bradford City Ativo 105 / 130 40% 1 28.11.2028 -
Chimobi Igwilo Rangers International Ativo 99 / 93 40% 2 27.11.2028 -
Terdoo Shimagande Niger Tornadoes Ativo 77 / 94 40% 2 27.11.2028 -
Abubakar Garba Nasarawa United Ativo 84 / 95 40% 1 25.11.2028 -
Umar Ada Nasarawa United Ativo 101 / 86 40% 2 24.11.2028 -
Marcos Gómez Lucko Ativo 99 / 106 40% 1 24.11.2028 -
Chukwudi Okoro Warri Wolves Ativo 92 / 82 40% 1 23.11.2028 -
Admir Bristrić Cambridge United Ativo 110 / 130 40% 1 23.11.2028 -
James Emo Rangers International Ativo 89 / 83 40% 3 22.11.2028 -
Emmanuel Jesam Rangers International Ativo 84 / 81 40% 1 22.11.2028 -
Okardi Inikurogha Bayelsa United Ativo 103 / 85 40% 2 21.11.2028 -
Ibrahim Yahaya Barau Ativo 89 / 86 40% 1 21.11.2028 -
Samson Olasupo Remo Stars Ativo 109 / 97 40% 3 20.11.2028 -
Tyshick Mosengo Kenya Police Ativo 86 / 90 40% 1 20.11.2028 -
Samuel Anakwe Remo Stars Ativo 93 / 107 40% 1 15.11.2028 -
Lewis Jamieson Newport County Ativo 100 / 111 40% 1 15.11.2028 -
Samuel Ayanrinde KCB Ativo 99 / 87 40% 2 14.11.2028 -
Paul Odhiambo Ulinzi Stars Ativo 80 / 83 40% 1 12.11.2028 -
Fer Niño Elche Ativo 143 / 148 40% 2 11.11.2028 -
Timilehin Olukotun Kun Khalifat Ativo 90 / 82 40% 1 11.11.2028 -
Jayden Danns Bradford City Ativo 130 / 157 40% 1 10.11.2028 -
Chukwuemeka Obioma Abia Warriors Ativo 111 / 91 40% 1 10.11.2028 -
Patrick Otieno KCB Ativo 90 / 80 40% 1 06.11.2028 -
Alao Dabani Nasarawa United Ativo 97 / 88 40% 1 06.11.2028 -
Fran Vieites Walsall Ativo 117 / 126 40% 4 31.05.2028 -
Ifeanyi Emmanuel Niger Tornadoes Ativo 108 / 100 40% 1 31.05.2028 -
Max Metcalfe Kosmos Ativo 98 / 71 40% 5 27.05.2028 -
Mustapha Lawal Shooting Stars Ativo 111 / 97 40% 1 27.05.2028 -
Stefano Filigheddu Monopoli Ativo 132 / 119 40% 3 24.05.2028 -
Valerio Boffelli Cavese Ativo 125 / 118 40% 2 24.05.2028 -
Steven Benda West Ham United Ativo 126 / 116 40% 1 23.05.2028 -
Vincent Edafe Warri Wolves Ativo 98 / 110 40% 1 23.05.2028 -
Semuel Pizzignacco Monza Ativo 141 / 139 40% 2 22.05.2028 -
Melker Ellborg Sunderland Ativo 150 / 151 40% 1 22.05.2028 -
Filippo Manfrin Arzignano Ativo 122 / 114 40% 1 21.05.2028 -
Sergio Barlocco Trento Ativo 127 / 136 40% 2 20.05.2028 -
Jakub Stolarczyk Middlesbrough Ativo 160 / 142 40% 1 20.05.2028 -
Niccolò Chiorra Casarano Ativo 100 / 99 40% 2 19.05.2028 -
Joshua Oluwayemi Rotherham United Ativo 106 / 106 40% 2 19.05.2028 -
Rinat Shakerov Volga Ativo 116 / 110 40% 1 18.05.2028 -
Robert Cook Accrington Stanley Ativo 126 / 102 40% 2 16.05.2028 -
Ameh Godwin Nasarawa United Ativo 100 / 98 40% 1 16.05.2028 -
Bogdan Ovsyannikov Orenburg Ativo 126 / 111 40% 1 15.05.2028 -
Nathan Bishop AFC Wimbledon Ativo 113 / 121 40% 3 14.05.2028 -
True Grant Oldham Athletic Ativo 100 / 106 40% 1 12.05.2028 -
Dmytro Matsapura Kryvbas Ativo 125 / 122 40% 4 08.05.2028 -
Guilherme Pires Sporting CP Ativo 111 / 98 40% 2 07.05.2028 -
Ivan Lomaev Ufa Ativo 132 / 116 40% 3 06.05.2028 -
Jordan Amissah Burton Albion Ativo 113 / 116 40% 1 06.05.2028 -
Alexei Rojas Fedorushchenko Barrow AFC Ativo 112 / 120 40% 1 05.05.2028 -
Thomas Vettorel Siracusa Ativo 119 / 105 40% 1 05.05.2028 -
Gianluca Saro Foggia Ativo 124 / 114 40% 2 02.05.2028 -
Biola Sabitu Remo Stars Ativo 100 / 110 40% 1 29.04.2028 -
Will Dennis Milton Keynes Dons Ativo 106 / 122 40% 4 28.04.2028 -
Joe Whitworth Wigan Athletic Ativo 111 / 135 40% 1 21.04.2028 -
Gabriele Baldi Guidonia Montecelio Ativo 114 / 129 40% 2 19.04.2028 -
Luca Gemello Perugia Ativo 112 / 112 40% 4 17.04.2028 -
Alberto Zecchin Dolomiti Bellunesi Ativo 84 / 111 40% 1 16.04.2028 -
Matteo Raffaelli Ascoli Ativo 108 / 116 40% 1 16.04.2028 -
Stephen McMullan Fleetwood Town Ativo 95 / 101 40% 1 13.04.2028 -
Cesare Galeotti Trapani Ativo 109 / 106 40% 2 11.04.2028 -
Maxim Shichanin Zenit Ativo 100 / 86 40% 1 11.04.2028 -
Ilja Tuseev Chelyabinsk Ativo 86 / 116 40% 1 10.04.2028 -
Francesco D'Alterio Ternana Ativo 126 / 126 40% 1 08.04.2028 -
William Rovida Pro Patria Ativo 107 / 102 40% 1 05.04.2028 -
Jake Turner Shrewsbury Town Ativo 104 / 89 40% 1 05.04.2028 -
Evgeny Latyshonok Nizhniy Novgorod Ativo 128 / 117 40% 1 31.03.2028 -
Timur Kraikov Sokol Ativo 85 / 107 40% 1 29.03.2028 -
Filip Marschall Stevenage Ativo 135 / 119 40% 1 28.03.2028 -
Ludovico Del Sorbo Sorrento Ativo 130 / 121 40% 1 28.03.2028 -
Daniel Peretz Wolverhampton Ativo 132 / 136 40% 1 26.03.2028 -
Roman Anikeev Dinamo Vologda Ativo 82 / 81 40% 1 23.03.2028 -
Murphy Cooper Plymouth Argyle Ativo 141 / 119 40% 1 23.03.2028 -
David Sangaré Ryazan Ativo 115 / 84 40% 1 10.03.2028 -
Sol Brynn Bradford City Ativo 139 / 122 40% 1 09.03.2028 -
Aynsley Pears Blackburn Rovers Ativo 117 / 134 40% 1 09.03.2028 -
Mikhail Gaidash Spartak Kostroma Ativo 104 / 95 40% 1 07.03.2028 -
Sam Proctor Salford City Ativo 125 / 137 40% 1 07.03.2028 -
Pierce Charles Manchester City Ativo 149 / 150 40% 1 06.03.2028 -
Abdulrahman Hamisu Niger Tornadoes Ativo 91 / 89 55% 1 14.06.2027 -
Chineme Chinonso Ikorodu City Ativo 95 / 103 55% 1 02.06.2027 -
Musa Malik Ikorodu City Ativo 92 / 97 42% 1 / 1m 21.04.2027 -
Qudus Olayiwola Warri Wolves Ativo 80 / 85 42% 1 / 1m 21.04.2027 -